LFSX 260700Z AUTO 26011KT 9999 -RA ////// 02/01 Q1003

ElémentsDécodage
LFSX Station météo située sur l'aérodrome de LUXEUIL Saint-Sauveur
260700Z émis le 26 du mois à 07h00 UTC
AUTO Bulletin édité par un automate
26011KT vent du 260°, 11 noeuds
9999 visibilité horizontale supérieure à 10 Km
-RA faible pluie
////// nébulosité (type et hauteur) non disponible
 type de nuage non observable
02/01 température 02°C, point de rosée 01°C
 soit une humidité relative de 93%
Q1003 la pression au niveau de la mer (QNH) est de 1003 hPa